createdAt,value
2022-10-22T00:04:48.370Z,15.02
2022-10-22T00:09:53.071Z,14.97
2022-10-22T00:14:56.662Z,14.98
2022-10-22T00:19:59.665Z,14.89
2022-10-22T00:25:04.183Z,14.88
2022-10-22T00:30:10.284Z,14.76
2022-10-22T00:35:13.414Z,14.72
2022-10-22T00:40:17.847Z,14.67
2022-10-22T00:45:24.459Z,14.63
2022-10-22T00:50:32.967Z,14.57
2022-10-22T00:55:38.526Z,14.51
2022-10-22T01:00:41.837Z,14.40
2022-10-22T01:05:53.426Z,14.34
2022-10-22T01:11:12.532Z,14.32
2022-10-22T01:16:23.300Z,14.27
2022-10-22T01:21:34.210Z,14.17
2022-10-22T01:26:50.940Z,14.10
2022-10-22T01:32:01.396Z,14.11
2022-10-22T01:37:05.224Z,14.03
2022-10-22T01:42:08.439Z,14.04
2022-10-22T01:47:19.937Z,14.02
2022-10-22T01:52:33.849Z,14.02
2022-10-22T01:57:45.421Z,14.02
2022-10-22T02:02:57.844Z,14.00
2022-10-22T02:08:04.103Z,13.95
2022-10-22T02:13:11.111Z,13.95
2022-10-22T02:18:17.695Z,14.00
2022-10-22T02:23:22.405Z,13.95
2022-10-22T02:28:30.632Z,13.98
2022-10-22T02:33:41.778Z,13.98
2022-10-22T02:38:46.369Z,14.00
2022-10-22T02:43:52.380Z,13.95
2022-10-22T02:48:59.692Z,14.01
2022-10-22T02:54:03.003Z,13.98
2022-10-22T02:59:06.209Z,13.94
2022-10-22T03:04:12.264Z,13.81
2022-10-22T03:09:15.268Z,13.97
2022-10-22T03:14:18.381Z,13.89
2022-10-22T03:19:22.784Z,13.91
2022-10-22T03:24:32.218Z,13.88
2022-10-22T03:29:38.784Z,13.91
2022-10-22T03:34:43.429Z,13.78
2022-10-22T03:39:47.047Z,13.84
2022-10-22T03:44:50.305Z,13.81
2022-10-22T03:49:54.948Z,13.73
2022-10-22T03:54:57.939Z,13.79
2022-10-22T04:00:01.077Z,13.72
2022-10-22T04:05:06.010Z,13.72
2022-10-22T04:10:09.915Z,13.73
2022-10-22T04:15:12.956Z,13.70
2022-10-22T04:20:17.358Z,13.68
2022-10-22T04:25:20.373Z,13.66
2022-10-22T04:30:23.445Z,13.64
2022-10-22T04:35:27.899Z,13.58
2022-10-22T04:40:30.934Z,13.58
2022-10-22T04:45:34.471Z,13.54
2022-10-22T04:50:39.442Z,13.51
2022-10-22T04:55:45.867Z,13.52
2022-10-22T05:00:49.212Z,13.50
2022-10-22T05:05:54.290Z,13.52
2022-10-22T05:11:02.543Z,13.50
2022-10-22T05:16:06.193Z,13.52
2022-10-22T05:21:12.772Z,13.49
2022-10-22T05:26:17.998Z,13.44
2022-10-22T05:31:29.023Z,13.32
2022-10-22T05:36:33.541Z,13.43
2022-10-22T05:41:37.353Z,13.42
2022-10-22T05:46:41.099Z,13.51
2022-10-22T05:51:45.629Z,13.46
2022-10-22T05:56:49.238Z,13.58
2022-10-22T06:01:52.861Z,13.55
2022-10-22T06:06:57.614Z,13.48
2022-10-22T06:12:01.334Z,13.48
2022-10-22T06:17:04.643Z,13.45
2022-10-22T06:22:09.615Z,13.44
2022-10-22T06:27:12.812Z,13.44
2022-10-22T06:32:15.851Z,13.40
2022-10-22T06:37:20.327Z,13.39
2022-10-22T06:42:23.449Z,13.39
2022-10-22T06:47:26.496Z,13.50
2022-10-22T06:52:30.926Z,13.58
2022-10-22T06:57:34.006Z,13.74
2022-10-22T07:02:37.140Z,13.86
2022-10-22T07:07:41.712Z,13.97
2022-10-22T07:12:45.491Z,14.04
2022-10-22T07:17:48.698Z,13.96
2022-10-22T07:22:53.519Z,14.04
2022-10-22T07:27:57.161Z,14.04
2022-10-22T07:33:02.198Z,14.16
2022-10-22T07:38:07.466Z,14.16
2022-10-22T07:43:10.952Z,14.20
2022-10-22T07:48:14.528Z,14.11
2022-10-22T07:53:25.734Z,14.30
2022-10-22T07:58:29.044Z,14.37
2022-10-22T08:03:32.835Z,14.44
2022-10-22T08:08:37.497Z,14.52
2022-10-22T08:13:45.338Z,14.77
2022-10-22T08:18:48.958Z,14.91
2022-10-22T08:23:54.761Z,15.05
2022-10-22T08:29:05.652Z,15.31
2022-10-22T08:34:09.628Z,15.56
2022-10-22T08:39:14.493Z,15.82
2022-10-22T08:44:39.662Z,15.97
2022-10-22T08:49:47.200Z,15.84
2022-10-22T08:54:54.604Z,15.93
2022-10-22T09:00:06.212Z,15.95
2022-10-22T09:05:29.770Z,16.07
2022-10-22T09:10:42.028Z,16.13
2022-10-22T09:15:53.082Z,16.07
2022-10-22T09:21:00.931Z,16.15
2022-10-22T09:26:13.541Z,16.14
2022-10-22T09:31:17.939Z,16.30
2022-10-22T09:36:24.460Z,16.28
2022-10-22T09:41:31.000Z,16.55
2022-10-22T09:46:44.088Z,16.62
2022-10-22T09:51:52.900Z,16.93
2022-10-22T09:56:59.727Z,17.32
2022-10-22T10:02:19.611Z,17.37
2022-10-22T10:07:26.877Z,17.59
2022-10-22T10:12:41.933Z,17.72
2022-10-22T10:17:52.074Z,18.07
2022-10-22T10:23:04.698Z,17.80
2022-10-22T10:28:30.757Z,17.81
2022-10-22T10:33:41.854Z,17.85
2022-10-22T10:38:57.436Z,18.14
2022-10-22T10:44:17.415Z,18.43
2022-10-22T10:49:24.413Z,18.48
2022-10-22T10:59:59.807Z,18.40
2022-10-22T11:05:22.470Z,18.18
2022-10-22T11:10:31.773Z,18.05
2022-10-22T11:15:40.671Z,18.01
2022-10-22T11:20:53.231Z,17.82
2022-10-22T11:25:56.414Z,18.06
2022-10-22T11:31:07.950Z,18.26
2022-10-22T11:36:14.216Z,18.38
2022-10-22T11:41:19.266Z,18.48
2022-10-22T11:46:41.943Z,18.52
2022-10-22T11:51:47.198Z,18.57
2022-10-22T11:56:54.190Z,18.77
2022-10-22T12:01:58.929Z,19.02
2022-10-22T12:07:03.782Z,19.17
2022-10-22T12:12:16.038Z,19.48
2022-10-22T12:17:22.959Z,19.08
2022-10-22T12:22:30.527Z,19.25
2022-10-22T12:27:37.622Z,19.32
2022-10-22T12:32:42.473Z,19.40
2022-10-22T12:38:06.424Z,19.43
2022-10-22T12:43:15.355Z,19.30
2022-10-22T12:48:23.587Z,18.94
2022-10-22T12:53:32.224Z,18.93
2022-10-22T12:58:43.013Z,19.11
2022-10-22T13:03:50.775Z,19.14
2022-10-22T13:09:03.665Z,19.36
2022-10-22T13:14:16.892Z,19.61
2022-10-22T13:19:51.197Z,19.57
2022-10-22T13:25:24.351Z,19.59
2022-10-22T13:30:30.574Z,19.58
2022-10-22T13:35:40.605Z,19.46
2022-10-22T13:40:43.750Z,19.58
2022-10-22T13:45:49.053Z,19.60
2022-10-22T13:50:54.753Z,19.63
2022-10-22T13:55:58.374Z,19.69
2022-10-22T14:01:02.983Z,19.67
2022-10-22T14:06:13.100Z,19.44
2022-10-22T14:11:16.148Z,19.39
2022-10-22T14:16:22.119Z,19.33
2022-10-22T14:21:26.637Z,19.18
2022-10-22T14:26:33.180Z,19.45
2022-10-22T14:31:36.530Z,19.43
2022-10-22T14:36:43.851Z,19.48
2022-10-22T14:41:47.969Z,19.63
2022-10-22T14:46:54.366Z,19.83
2022-10-22T14:51:59.005Z,20.00
2022-10-22T14:57:02.586Z,20.17
2022-10-22T15:02:05.833Z,20.08
2022-10-22T15:07:10.273Z,20.04
2022-10-22T15:12:13.630Z,19.95
2022-10-22T15:17:17.011Z,19.91
2022-10-22T15:22:21.536Z,19.83
2022-10-22T15:27:25.285Z,19.75
2022-10-22T15:32:29.645Z,19.67
2022-10-22T15:37:34.063Z,19.53
2022-10-22T15:42:37.176Z,19.41
2022-10-22T15:47:40.502Z,19.26
2022-10-22T15:52:45.178Z,19.11
2022-10-22T15:57:54.773Z,18.87
2022-10-22T16:02:57.808Z,18.78
2022-10-22T16:08:02.213Z,18.57
2022-10-22T16:13:05.311Z,18.21
2022-10-22T16:18:08.542Z,18.12
2022-10-22T16:23:14.041Z,17.99
2022-10-22T16:28:17.398Z,17.82
2022-10-22T16:33:20.839Z,17.62
2022-10-22T16:38:25.372Z,17.33
2022-10-22T16:43:30.185Z,17.12
2022-10-22T16:48:33.716Z,17.02
2022-10-22T16:53:38.397Z,16.81
2022-10-22T16:58:46.499Z,16.61
2022-10-22T17:03:49.677Z,16.43
2022-10-22T17:08:54.480Z,16.27
2022-10-22T17:13:58.050Z,16.03
2022-10-22T17:19:03.719Z,15.89
2022-10-22T17:24:10.208Z,15.78
2022-10-22T17:29:13.904Z,15.70
2022-10-22T17:34:19.029Z,15.59
2022-10-22T17:39:23.576Z,15.47
2022-10-22T17:44:27.307Z,15.41
2022-10-22T17:49:30.436Z,15.28
2022-10-22T17:54:35.753Z,15.17
2022-10-22T17:59:39.183Z,15.07
2022-10-22T18:04:42.375Z,14.98
2022-10-22T18:09:47.315Z,14.89
2022-10-22T18:14:50.611Z,14.77
2022-10-22T18:19:53.677Z,14.63
2022-10-22T18:24:58.850Z,14.60
2022-10-22T18:30:01.773Z,14.48
2022-10-22T18:35:08.307Z,14.45
2022-10-22T18:40:14.698Z,14.41
2022-10-22T18:45:18.454Z,14.27
2022-10-22T18:50:22.496Z,14.30
2022-10-22T18:55:28.097Z,14.19
2022-10-22T19:00:31.904Z,14.14
2022-10-22T19:05:36.418Z,14.21
2022-10-22T19:10:45.026Z,14.19
2022-10-22T19:15:49.777Z,14.01
2022-10-22T19:20:59.241Z,14.12
2022-10-22T19:26:11.357Z,14.10
2022-10-22T19:31:19.119Z,14.00
2022-10-22T19:36:28.259Z,14.00
2022-10-22T19:41:33.797Z,13.83
2022-10-22T19:46:37.056Z,13.89
2022-10-22T19:51:41.677Z,13.76
2022-10-22T19:56:50.407Z,13.77
2022-10-22T20:01:54.150Z,13.73
2022-10-22T20:06:57.537Z,13.69
2022-10-22T20:12:02.060Z,13.67
2022-10-22T20:17:05.340Z,13.62
2022-10-22T20:22:08.469Z,13.59
2022-10-22T20:27:14.883Z,13.60
2022-10-22T20:32:17.908Z,13.61
2022-10-22T20:37:21.008Z,13.58
2022-10-22T20:42:25.646Z,13.53
2022-10-22T20:47:44.386Z,13.45
2022-10-22T20:52:55.643Z,13.53
2022-10-22T20:58:00.156Z,13.56
2022-10-22T21:03:03.414Z,13.50
2022-10-22T21:08:07.110Z,13.56
2022-10-22T21:13:11.557Z,13.52
2022-10-22T21:18:14.597Z,13.52
2022-10-22T21:23:17.872Z,13.54
2022-10-22T21:28:22.490Z,13.47
2022-10-22T21:33:25.554Z,13.51
2022-10-22T21:38:28.880Z,13.46
2022-10-22T21:43:33.488Z,13.39
2022-10-22T21:48:36.983Z,13.45
2022-10-22T21:53:40.707Z,13.42
2022-10-22T21:58:45.496Z,13.45
2022-10-22T22:03:50.404Z,13.45
2022-10-22T22:08:55.149Z,13.38
2022-10-22T22:14:05.392Z,13.43
2022-10-22T22:19:13.432Z,13.31
2022-10-22T22:24:16.564Z,13.30
2022-10-22T22:29:21.061Z,13.48
2022-10-22T22:34:24.227Z,13.42
2022-10-22T22:39:28.637Z,13.42
2022-10-22T22:44:36.181Z,13.45
2022-10-22T22:49:39.534Z,13.19
2022-10-22T22:54:42.679Z,13.34
2022-10-22T22:59:52.313Z,13.54
2022-10-22T23:04:55.462Z,13.47
2022-10-22T23:09:58.618Z,13.48
2022-10-22T23:15:03.322Z,13.45
2022-10-22T23:20:07.734Z,13.41
2022-10-22T23:25:11.336Z,13.41
2022-10-22T23:30:16.184Z,13.33
2022-10-22T23:35:19.553Z,13.30
2022-10-22T23:40:22.545Z,13.22
2022-10-22T23:45:27.089Z,13.19
2022-10-22T23:50:30.183Z,13.25
2022-10-22T23:55:33.284Z,13.24
